createdAt,value
2016-06-02T00:00:54.254Z,989.27
2016-06-02T00:01:54.257Z,989.31
2016-06-02T00:02:54.072Z,989.31
2016-06-02T00:03:54.277Z,989.31
2016-06-02T00:04:54.280Z,989.31
2016-06-02T00:06:54.082Z,989.27
2016-06-02T00:07:54.304Z,989.27
2016-06-02T00:08:54.104Z,989.24
2016-06-02T00:09:54.591Z,989.28
2016-06-02T00:10:54.109Z,989.24
2016-06-02T00:11:54.127Z,989.23
2016-06-02T00:12:54.131Z,989.28
2016-06-02T00:13:54.133Z,989.22
2016-06-02T00:14:54.136Z,989.23
2016-06-02T00:15:54.153Z,989.22
2016-06-02T00:16:54.156Z,989.22
2016-06-02T00:17:54.362Z,989.26
2016-06-02T00:18:54.381Z,989.25
2016-06-02T00:19:54.180Z,989.25
2016-06-02T00:20:54.386Z,989.26
2016-06-02T00:21:54.201Z,989.26
2016-06-02T00:22:54.203Z,989.22
2016-06-02T00:23:54.206Z,989.28
2016-06-02T00:24:54.209Z,989.29
2016-06-02T00:25:54.227Z,989.3
2016-06-02T00:26:54.230Z,989.35
2016-06-02T00:27:54.874Z,989.37
2016-06-02T00:28:54.251Z,989.37
2016-06-02T00:29:54.255Z,989.37
2016-06-02T00:30:54.272Z,989.31
2016-06-02T00:31:54.274Z,989.29
2016-06-02T00:32:54.277Z,989.25
2016-06-02T00:33:54.280Z,989.27
2016-06-02T00:34:54.533Z,989.29
2016-06-02T00:35:54.301Z,989.25
2016-06-02T00:36:54.507Z,989.23
2016-06-02T00:37:54.307Z,989.24
2016-06-02T00:38:54.326Z,989.25
2016-06-02T00:39:54.531Z,989.2
2016-06-02T00:40:54.362Z,989.18
2016-06-02T00:41:54.348Z,989.22
2016-06-02T00:42:54.351Z,989.24
2016-06-02T00:43:54.354Z,989.29
2016-06-02T00:44:54.404Z,989.25
2016-06-02T00:45:54.406Z,989.24
2016-06-02T00:46:54.378Z,989.28
2016-06-02T00:50:54.420Z,989.38
2016-06-02T00:52:54.441Z,989.35
2016-06-02T00:53:54.459Z,989.43
2016-06-02T00:54:54.447Z,989.41
2016-06-02T00:55:54.667Z,989.44
2016-06-02T00:56:54.467Z,989.46
2016-06-02T00:57:55.079Z,989.44
2016-06-02T00:58:55.129Z,989.41
2016-06-02T01:00:54.697Z,989.34
2016-06-02T01:01:54.512Z,989.34
2016-06-02T01:02:54.515Z,989.31
2016-06-02T01:03:54.518Z,989.36
2016-06-02T01:04:54.535Z,989.42
2016-06-02T01:05:54.538Z,989.45
2016-06-02T01:06:54.557Z,989.54
2016-06-02T01:07:54.543Z,989.53
2016-06-02T01:08:54.562Z,989.58
2016-06-02T01:09:54.565Z,989.54
2016-06-02T01:10:54.567Z,989.49
2016-06-02T01:11:54.789Z,989.5
2016-06-02T01:12:54.604Z,989.49
2016-06-02T01:13:54.591Z,989.44
2016-06-02T01:14:54.641Z,989.41
2016-06-02T01:15:54.612Z,989.36
2016-06-02T01:16:54.646Z,989.4
2016-06-02T01:17:54.634Z,989.41
2016-06-02T01:19:54.639Z,989.41
2016-06-02T01:20:54.673Z,989.41
2016-06-02T01:22:54.678Z,989.39
2016-06-02T01:23:54.900Z,989.33
2016-06-02T01:24:54.731Z,989.3
2016-06-02T01:25:54.702Z,989.28
2016-06-02T01:26:54.705Z,989.28
2016-06-02T01:27:54.708Z,989.25
2016-06-02T01:28:54.928Z,989.29
2016-06-02T01:29:54.728Z,989.31
2016-06-02T01:30:54.731Z,989.3
2016-06-02T01:31:54.733Z,989.3
2016-06-02T01:32:54.752Z,989.3
2016-06-02T01:33:54.755Z,989.29
2016-06-02T01:34:54.772Z,989.27
2016-06-02T01:35:54.775Z,989.26
2016-06-02T01:36:54.778Z,989.27
2016-06-02T01:37:54.780Z,989.24
2016-06-02T01:38:54.799Z,989.29
2016-06-02T01:39:54.802Z,989.28
2016-06-02T01:40:54.805Z,989.25
2016-06-02T01:41:54.823Z,989.24
2016-06-02T01:42:54.826Z,989.18
2016-06-02T01:43:54.829Z,989.16
2016-06-02T01:44:54.831Z,989.17
2016-06-02T01:45:54.849Z,989.18
2016-06-02T01:46:55.070Z,989.18
2016-06-02T01:47:55.073Z,989.19
2016-06-02T01:48:55.076Z,989.21
2016-06-02T01:49:54.891Z,989.21
2016-06-02T01:50:54.894Z,989.21
2016-06-02T01:51:54.912Z,989.25
2016-06-02T01:52:54.900Z,989.2
2016-06-02T01:53:54.948Z,989.22
2016-06-02T01:54:55.108Z,989.26
2016-06-02T01:55:55.594Z,989.22
2016-06-02T01:56:55.051Z,989.25
2016-06-02T01:57:54.974Z,989.22
2016-06-02T01:59:54.980Z,989.2
2016-06-02T02:00:54.983Z,989.22
2016-06-02T02:02:55.207Z,989.21
2016-06-02T02:03:55.007Z,989.24
2016-06-02T02:04:55.010Z,989.29
2016-06-02T02:05:55.027Z,989.3
2016-06-02T02:06:55.030Z,989.3
2016-06-02T02:07:55.032Z,989.29
2016-06-02T02:08:55.036Z,989.31
2016-06-02T02:09:55.055Z,989.33
2016-06-02T02:10:55.041Z,989.32
2016-06-02T02:11:55.091Z,989.32
2016-06-02T02:12:55.063Z,989.38
2016-06-02T02:13:55.065Z,989.35
2016-06-02T02:14:55.083Z,989.37
2016-06-02T02:15:55.086Z,989.42
2016-06-02T02:16:55.104Z,989.47
2016-06-02T02:17:55.123Z,989.45
2016-06-02T02:18:55.344Z,989.46
2016-06-02T02:19:55.159Z,989.48
2016-06-02T02:20:55.333Z,989.45
2016-06-02T02:21:55.337Z,989.48
2016-06-02T02:22:55.151Z,989.49
2016-06-02T02:23:55.170Z,989.5
2016-06-02T02:25:55.192Z,989.48
2016-06-02T02:26:55.396Z,989.48
2016-06-02T02:27:55.196Z,989.49
2016-06-02T02:28:55.200Z,989.47
2016-06-02T02:29:55.202Z,989.45
2016-06-02T02:30:55.204Z,989.45
2016-06-02T02:31:55.457Z,989.46
2016-06-02T02:32:55.460Z,989.44
2016-06-02T02:33:55.244Z,989.43
2016-06-02T02:34:55.480Z,989.45
2016-06-02T02:35:55.249Z,989.45
2016-06-02T02:36:55.283Z,989.46
2016-06-02T02:37:55.302Z,989.45
2016-06-02T02:38:55.273Z,989.44
2016-06-02T02:39:56.321Z,989.43
2016-06-02T02:41:55.296Z,989.38
2016-06-02T02:42:55.315Z,989.38
2016-06-02T02:43:55.317Z,989.41
2016-06-02T02:44:55.351Z,989.38
2016-06-02T02:45:55.338Z,989.37
2016-06-02T02:46:55.340Z,989.34
2016-06-02T02:47:55.563Z,989.33
2016-06-02T02:48:55.362Z,989.32
2016-06-02T02:49:55.567Z,989.33
2016-06-02T02:51:55.589Z,989.32
2016-06-02T02:52:55.592Z,989.3
2016-06-02T02:53:55.594Z,989.33
2016-06-02T02:54:55.409Z,989.25
2016-06-02T02:55:55.412Z,989.28
2016-06-02T02:56:55.431Z,989.26
2016-06-02T02:57:55.417Z,989.23
2016-06-02T02:58:55.420Z,989.26
2016-06-02T02:59:55.439Z,989.2
2016-06-02T03:00:55.457Z,989.17
2016-06-02T03:01:55.444Z,989.17
2016-06-02T03:02:55.478Z,989.25
2016-06-02T03:03:55.466Z,989.26
2016-06-02T03:04:55.468Z,989.26
2016-06-02T03:05:55.485Z,989.29
2016-06-02T03:06:55.504Z,989.23
2016-06-02T03:07:55.507Z,989.22
2016-06-02T03:08:55.510Z,989.23
2016-06-02T03:09:55.513Z,989.23
2016-06-02T03:10:55.984Z,989.2
2016-06-02T03:11:55.533Z,989.2
2016-06-02T03:12:55.552Z,989.22
2016-06-02T03:13:55.555Z,989.17
2016-06-02T03:14:55.557Z,989.17
2016-06-02T03:15:55.560Z,989.21
2016-06-02T03:16:55.562Z,989.2
2016-06-02T03:17:55.581Z,989.21
2016-06-02T03:18:55.583Z,989.2
2016-06-02T03:19:55.601Z,989.16
2016-06-02T03:20:55.604Z,989.19
2016-06-02T03:21:55.607Z,989.22
2016-06-02T03:22:55.609Z,989.22
2016-06-02T03:23:55.628Z,989.23
2016-06-02T03:24:56.381Z,989.21
2016-06-02T03:25:55.664Z,989.19
2016-06-02T03:26:55.652Z,989.19
2016-06-02T03:27:55.858Z,989.2
2016-06-02T03:28:55.682Z,989.21
2016-06-02T03:29:55.710Z,989.22
2016-06-02T03:30:55.784Z,989.21
2016-06-02T03:31:55.797Z,989.22
2016-06-02T03:32:55.809Z,989.24
2016-06-02T03:33:55.868Z,989.21
2016-06-02T03:34:56.053Z,989.22
2016-06-02T03:35:55.877Z,989.19
2016-06-02T03:36:55.888Z,989.18
2016-06-02T03:37:55.916Z,989.21
2016-06-02T03:38:55.907Z,989.18
2016-06-02T03:40:55.950Z,989.21
2016-06-02T03:41:55.971Z,989.23
2016-06-02T03:42:56.164Z,989.24
2016-06-02T03:43:55.965Z,989.27
2016-06-02T03:44:55.984Z,989.25
2016-06-02T03:45:55.988Z,989.28
2016-06-02T03:46:56.023Z,989.31
2016-06-02T03:47:56.012Z,989.28
2016-06-02T03:48:56.015Z,989.32
2016-06-02T03:49:56.018Z,989.31
2016-06-02T03:50:56.021Z,989.3
2016-06-02T03:51:56.040Z,989.31
2016-06-02T03:52:56.246Z,989.39
2016-06-02T03:53:56.046Z,989.42
2016-06-02T03:54:56.252Z,989.46
2016-06-02T03:55:56.098Z,989.48
2016-06-02T03:56:56.071Z,989.47
2016-06-02T03:57:56.074Z,989.47
2016-06-02T03:58:56.092Z,989.51
2016-06-02T03:59:56.501Z,989.53
2016-06-02T04:00:56.128Z,989.58
2016-06-02T04:01:56.351Z,989.57
2016-06-02T04:02:56.150Z,989.64
2016-06-02T04:06:56.379Z,989.71
2016-06-02T04:07:56.382Z,989.75
2016-06-02T04:09:56.606Z,989.76
2016-06-02T04:10:56.811Z,989.81
2016-06-02T04:11:56.408Z,989.83
2016-06-02T04:12:56.410Z,989.89
2016-06-02T04:13:56.429Z,989.93
2016-06-02T04:14:56.213Z,989.99
2016-06-02T04:15:56.638Z,990.02
2016-06-02T04:16:56.234Z,990.07
2016-06-02T04:17:56.252Z,990.14
2016-06-02T04:18:56.240Z,990.14
2016-06-02T04:19:56.257Z,990.18
2016-06-02T04:20:56.260Z,990.21
2016-06-02T04:21:56.263Z,990.22
2016-06-02T04:22:56.266Z,990.21
2016-06-02T04:23:56.284Z,990.22
2016-06-02T04:24:56.287Z,990.19
2016-06-02T04:25:56.290Z,990.19
2016-06-02T04:26:56.307Z,990.17
2016-06-02T04:27:56.310Z,990.15
2016-06-02T04:28:56.329Z,990.12
2016-06-02T04:29:56.332Z,990.11
2016-06-02T04:30:56.335Z,990.11
2016-06-02T04:31:56.540Z,990.06
2016-06-02T04:32:56.370Z,990.03
2016-06-02T04:33:56.389Z,990.04
2016-06-02T04:34:56.564Z,990.04
2016-06-02T04:35:56.363Z,990.02
2016-06-02T04:36:56.366Z,989.99
2016-06-02T04:37:56.384Z,989.99
2016-06-02T04:38:56.372Z,989.95
2016-06-02T04:39:56.374Z,989.99
2016-06-02T04:40:57.408Z,989.99
2016-06-02T04:41:56.817Z,989.95
2016-06-02T04:42:56.414Z,989.96
2016-06-02T04:43:56.432Z,989.96
2016-06-02T04:44:56.435Z,989.94
2016-06-02T04:46:56.441Z,989.96
2016-06-02T04:47:56.458Z,990
2016-06-02T04:48:56.461Z,989.97
2016-06-02T04:49:56.463Z,989.98
2016-06-02T04:50:56.482Z,989.97
2016-06-02T04:51:56.484Z,989.99
2016-06-02T04:52:56.487Z,989.97
2016-06-02T04:53:56.505Z,990.01
2016-06-02T04:54:56.508Z,990.01
2016-06-02T04:55:57.073Z,990.05
2016-06-02T04:56:56.498Z,990.03
2016-06-02T04:57:56.516Z,990.01
2016-06-02T04:58:56.534Z,990.01
2016-06-02T04:59:56.537Z,990.05
2016-06-02T05:00:56.540Z,990.07
2016-06-02T05:01:56.762Z,990.07
2016-06-02T05:03:56.767Z,990.1
2016-06-02T05:04:56.567Z,990.12
2016-06-02T05:05:56.616Z,990.09
2016-06-02T05:06:56.572Z,990.1
2016-06-02T05:07:56.589Z,990.09
2016-06-02T05:08:56.592Z,990.12
2016-06-02T05:09:56.798Z,990.09
2016-06-02T05:10:57.020Z,990.15
2016-06-02T05:11:56.600Z,990.11
2016-06-02T05:12:56.838Z,990.11
2016-06-02T05:13:56.638Z,990.14
2016-06-02T05:14:56.625Z,990.17
2016-06-02T05:15:56.643Z,990.2
2016-06-02T05:16:56.646Z,990.18
2016-06-02T05:17:56.898Z,990.16
2016-06-02T05:18:56.667Z,990.21
2016-06-02T05:19:56.872Z,990.15
2016-06-02T05:20:56.687Z,990.16
2016-06-02T05:21:56.691Z,990.16
2016-06-02T05:22:56.693Z,990.14
2016-06-02T05:23:56.946Z,990.14
2016-06-02T05:24:57.401Z,990.14
2016-06-02T05:25:56.920Z,990.13
2016-06-02T05:26:56.923Z,990.1
2016-06-02T05:27:56.769Z,990.09
2016-06-02T05:30:56.980Z,990.12
2016-06-02T05:31:56.764Z,990.08
2016-06-02T05:32:56.985Z,990.1
2016-06-02T05:33:57.207Z,990.08
2016-06-02T05:34:57.007Z,990.11
2016-06-02T05:35:56.790Z,990.1
2016-06-02T05:36:56.809Z,990.11
2016-06-02T05:37:56.812Z,990.07
2016-06-02T05:38:57.017Z,990.06
2016-06-02T05:39:56.817Z,990.04
2016-06-02T05:40:57.304Z,990.02
2016-06-02T05:41:56.838Z,989.99
2016-06-02T05:42:57.075Z,990
2016-06-02T05:43:56.874Z,989.97
2016-06-02T05:44:56.892Z,989.99
2016-06-02T05:45:56.863Z,989.98
2016-06-02T05:46:57.070Z,989.99
2016-06-02T05:47:57.104Z,990
2016-06-02T05:48:56.888Z,989.96
2016-06-02T05:49:56.891Z,989.95
2016-06-02T05:50:57.112Z,990.02
2016-06-02T05:51:56.911Z,989.97
2016-06-02T05:52:57.132Z,990
2016-06-02T05:53:57.136Z,990.03
2016-06-02T05:54:57.201Z,990.04
2016-06-02T05:55:56.985Z,990.07
2016-06-02T05:56:57.159Z,990.09
2016-06-02T05:57:57.365Z,990.11
2016-06-02T05:58:56.962Z,990.08
2016-06-02T05:59:57.215Z,990.11
2016-06-02T06:00:56.982Z,990.12
2016-06-02T06:01:57.001Z,990.16
2016-06-02T06:02:57.020Z,990.15
2016-06-02T06:03:57.209Z,990.15
2016-06-02T06:04:57.212Z,990.19
2016-06-02T06:05:57.433Z,990.16
2016-06-02T06:07:57.048Z,990.21
2016-06-02T06:08:57.067Z,990.19
2016-06-02T06:09:57.070Z,990.22
2016-06-02T06:10:57.072Z,990.21
2016-06-02T06:11:57.278Z,990.19
2016-06-02T06:12:57.109Z,990.18
2016-06-02T06:13:57.095Z,990.22
2016-06-02T06:14:57.098Z,990.22
2016-06-02T06:15:57.101Z,990.28
2016-06-02T06:16:57.119Z,990.29
2016-06-02T06:17:57.138Z,990.24
2016-06-02T06:18:57.125Z,990.29
2016-06-02T06:19:57.144Z,990.31
2016-06-02T06:20:57.147Z,990.31
2016-06-02T06:21:57.163Z,990.33
2016-06-02T06:22:57.167Z,990.35
2016-06-02T06:23:57.186Z,990.36
2016-06-02T06:24:57.641Z,990.36
2016-06-02T06:25:57.191Z,990.37
2016-06-02T06:26:57.210Z,990.37
2016-06-02T06:27:57.258Z,990.37
2016-06-02T06:28:57.215Z,990.38
2016-06-02T06:29:57.249Z,990.39
2016-06-02T06:30:57.251Z,990.42
2016-06-02T06:31:57.254Z,990.42
2016-06-02T06:32:57.476Z,990.4
2016-06-02T06:33:57.274Z,990.41
2016-06-02T06:34:57.277Z,990.36
2016-06-02T06:35:57.296Z,990.36
2016-06-02T06:36:57.315Z,990.38
2016-06-02T06:37:57.332Z,990.38
2016-06-02T06:38:57.335Z,990.35
2016-06-02T06:39:57.337Z,990.38
2016-06-02T06:40:57.340Z,990.39
2016-06-02T06:41:57.343Z,990.43
2016-06-02T06:42:57.361Z,990.42
2016-06-02T06:43:57.567Z,990.37
2016-06-02T06:44:57.366Z,990.38
2016-06-02T06:45:57.386Z,990.41
2016-06-02T06:46:57.388Z,990.4
2016-06-02T06:47:57.391Z,990.47
2016-06-02T06:48:57.408Z,990.45
2016-06-02T06:49:57.427Z,990.43
2016-06-02T06:50:57.430Z,990.46
2016-06-02T06:51:57.432Z,990.43
2016-06-02T06:52:57.450Z,990.42
2016-06-02T06:53:57.453Z,990.37
2016-06-02T06:54:57.675Z,990.34
2016-06-02T06:55:57.865Z,990.34
2016-06-02T06:56:57.477Z,990.36
2016-06-02T06:57:57.495Z,990.39
2016-06-02T06:58:57.498Z,990.37
2016-06-02T06:59:57.516Z,990.37
2016-06-02T07:00:57.566Z,990.34
2016-06-02T07:01:57.537Z,990.36
2016-06-02T07:02:57.774Z,990.31
2016-06-02T07:03:57.949Z,990.31
2016-06-02T07:04:57.982Z,990.3
2016-06-02T07:05:57.579Z,990.31
2016-06-02T07:06:57.581Z,990.33
2016-06-02T07:07:57.615Z,990.32
2016-06-02T07:08:57.603Z,990.35
2016-06-02T07:09:57.621Z,990.34
2016-06-02T07:10:57.623Z,990.35
2016-06-02T07:11:57.627Z,990.38
2016-06-02T07:12:57.645Z,990.36
2016-06-02T07:13:57.663Z,990.38
2016-06-02T07:14:57.870Z,990.36
2016-06-02T07:15:57.872Z,990.35
2016-06-02T07:16:57.672Z,990.31
2016-06-02T07:17:57.706Z,990.36
2016-06-02T07:18:57.709Z,990.32
2016-06-02T07:19:57.710Z,990.28
2016-06-02T07:20:57.745Z,990.29
2016-06-02T07:21:57.748Z,990.28
2016-06-02T07:22:57.735Z,990.23
2016-06-02T07:23:57.753Z,990.22
2016-06-02T07:24:57.787Z,990.21
2016-06-02T07:25:57.914Z,990.26
2016-06-02T07:26:57.808Z,990.25
2016-06-02T07:27:57.811Z,990.24
2016-06-02T07:28:57.797Z,990.23
2016-06-02T07:29:57.847Z,990.24
2016-06-02T07:30:58.225Z,990.29
2016-06-02T07:31:58.055Z,990.3
2016-06-02T07:32:57.855Z,990.32
2016-06-02T07:33:57.858Z,990.34
2016-06-02T07:34:57.861Z,990.34
2016-06-02T07:35:58.113Z,990.37
2016-06-02T07:36:57.882Z,990.37
2016-06-02T07:37:57.931Z,990.37
2016-06-02T07:38:57.996Z,990.39
2016-06-02T07:39:57.921Z,990.42
2016-06-02T07:40:58.159Z,990.43
2016-06-02T07:41:57.942Z,990.45
2016-06-02T07:42:57.945Z,990.49
2016-06-02T07:43:57.978Z,990.52
2016-06-02T07:44:58.012Z,990.5
2016-06-02T07:46:58.003Z,990.57
2016-06-02T07:47:58.021Z,990.54
2016-06-02T07:48:58.023Z,990.54
2016-06-02T07:49:58.229Z,990.59
2016-06-02T07:50:58.044Z,990.56
2016-06-02T07:51:58.281Z,990.56
2016-06-02T07:52:58.081Z,990.54
2016-06-02T07:53:58.084Z,990.54
2016-06-02T07:54:58.492Z,990.49
2016-06-02T07:55:58.120Z,990.44
2016-06-02T07:56:58.107Z,990.41
2016-06-02T07:57:58.157Z,990.41
2016-06-02T07:58:58.160Z,990.4
2016-06-02T07:59:58.163Z,990.38
2016-06-02T08:00:58.166Z,990.45
2016-06-02T08:01:58.183Z,990.48
2016-06-02T08:02:58.185Z,990.54
2016-06-02T08:03:58.220Z,990.57
2016-06-02T08:04:58.426Z,990.57
2016-06-02T08:05:58.240Z,990.56
2016-06-02T08:06:58.229Z,990.59
2016-06-02T08:07:58.246Z,990.59
2016-06-02T08:08:58.264Z,990.65
2016-06-02T08:10:58.301Z,990.61
2016-06-02T08:11:58.303Z,990.56
2016-06-02T08:12:58.307Z,990.49
2016-06-02T08:13:58.325Z,990.44
2016-06-02T08:14:58.342Z,990.35
2016-06-02T08:15:58.345Z,990.32
2016-06-02T08:16:58.380Z,990.23
2016-06-02T08:17:58.383Z,990.22
2016-06-02T08:18:58.385Z,990.14
2016-06-02T08:19:58.404Z,990.2
2016-06-02T08:20:58.422Z,990.14
2016-06-02T08:21:58.425Z,990.1
2016-06-02T08:22:58.442Z,990.03
2016-06-02T08:24:58.495Z,989.98
2016-06-02T08:25:58.701Z,990
2016-06-02T08:26:58.500Z,989.99
2016-06-02T08:27:58.519Z,989.95
2016-06-02T08:28:58.521Z,989.91
2016-06-02T08:29:58.524Z,989.9
2016-06-02T08:30:58.964Z,989.88
2016-06-02T08:31:58.561Z,989.9
2016-06-02T08:32:58.579Z,989.97
2016-06-02T08:33:58.582Z,989.98
2016-06-02T08:34:58.804Z,990.04
2016-06-02T08:35:58.619Z,990.07
2016-06-02T08:36:58.621Z,990.15
2016-06-02T08:37:58.639Z,990.11
2016-06-02T08:38:58.657Z,990.07
2016-06-02T08:39:58.863Z,990.05
2016-06-02T08:40:58.709Z,990.05
2016-06-02T08:41:58.712Z,990
2016-06-02T08:42:58.700Z,989.98
2016-06-02T08:43:58.717Z,990
2016-06-02T08:44:58.736Z,989.99
2016-06-02T08:45:58.739Z,990.08
2016-06-02T08:46:58.757Z,990.08
2016-06-02T08:47:58.963Z,990.06
2016-06-02T08:48:58.981Z,990.11
2016-06-02T08:49:58.797Z,990.1
2016-06-02T08:50:58.814Z,990.05
2016-06-02T08:51:58.818Z,990.09
2016-06-02T08:52:58.836Z,990.06
2016-06-02T08:53:58.855Z,990.03
2016-06-02T08:54:58.857Z,990.02
2016-06-02T08:55:58.891Z,990.02
2016-06-02T08:56:58.908Z,990.03
2016-06-02T08:58:59.118Z,989.98
2016-06-02T08:59:58.933Z,989.95
2016-06-02T09:00:58.936Z,989.94
2016-06-02T09:01:58.938Z,989.9
2016-06-02T09:02:58.957Z,989.9
2016-06-02T09:03:59.209Z,989.86
2016-06-02T09:04:58.994Z,989.89
2016-06-02T09:05:58.996Z,989.9
2016-06-02T09:06:59.030Z,989.92
2016-06-02T09:07:59.018Z,989.9
2016-06-02T09:08:59.035Z,989.95
2016-06-02T09:09:59.085Z,989.97
2016-06-02T09:10:59.291Z,989.92
2016-06-02T09:11:59.278Z,989.95
2016-06-02T09:12:59.092Z,989.91
2016-06-02T09:13:59.095Z,989.9
2016-06-02T09:14:59.115Z,989.9
2016-06-02T09:15:59.164Z,989.89
2016-06-02T09:17:59.153Z,989.9
2016-06-02T09:18:59.172Z,989.91
2016-06-02T09:19:59.378Z,989.96
2016-06-02T09:20:59.395Z,989.97
2016-06-02T09:21:59.196Z,989.94
2016-06-02T09:22:59.214Z,989.94
2016-06-02T09:23:59.232Z,989.92
2016-06-02T09:24:59.250Z,989.95
2016-06-02T09:25:59.252Z,989.97
2016-06-02T09:26:59.287Z,989.95
2016-06-02T09:27:59.275Z,989.95
2016-06-02T09:28:59.324Z,989.95
2016-06-02T09:29:59.295Z,989.97
2016-06-02T09:30:59.329Z,990.02
2016-06-02T09:31:59.535Z,989.99
2016-06-02T09:32:59.335Z,989.99
2016-06-02T09:33:59.352Z,990.02
2016-06-02T09:35:59.389Z,989.97
2016-06-02T09:36:59.392Z,989.96
2016-06-02T09:37:59.410Z,989.98
2016-06-02T09:38:59.413Z,989.94
2016-06-02T09:39:59.993Z,989.93
2016-06-02T09:40:59.435Z,989.9
2016-06-02T09:41:59.687Z,989.94
2016-06-02T09:43:59.473Z,989.93
2016-06-02T09:44:59.492Z,989.99
2016-06-02T09:45:59.525Z,989.94
2016-06-02T09:46:59.529Z,989.95
2016-06-02T09:47:59.765Z,989.93
2016-06-02T09:48:59.546Z,989.94
2016-06-02T09:49:59.565Z,989.95
2016-06-02T09:51:00.008Z,989.98
2016-06-02T09:52:59.620Z,989.97
2016-06-02T09:53:59.825Z,989.97
2016-06-02T09:55:00.563Z,989.96
2016-06-02T09:55:59.628Z,989.94
2016-06-02T09:56:59.631Z,989.95
2016-06-02T09:57:59.649Z,989.89
2016-06-02T09:58:59.667Z,989.92
2016-06-02T09:59:59.670Z,989.93
2016-06-02T10:00:59.689Z,989.91
2016-06-02T10:01:59.941Z,989.86
2016-06-02T10:02:59.944Z,989.91
2016-06-02T10:03:59.728Z,989.94
2016-06-02T10:04:59.746Z,989.92
2016-06-02T10:05:59.749Z,989.94
2016-06-02T10:06:59.799Z,989.97
2016-06-02T10:07:59.988Z,989.97
2016-06-02T10:08:59.788Z,990.03
2016-06-02T10:10:00.024Z,990.05
2016-06-02T10:11:00.044Z,990.04
2016-06-02T10:11:59.843Z,990.01
2016-06-02T10:12:59.860Z,989.97
2016-06-02T10:13:59.863Z,990
2016-06-02T10:14:59.882Z,990
2016-06-02T10:15:59.885Z,990.03
2016-06-02T10:17:00.137Z,990.14
2016-06-02T10:17:59.921Z,990.09
2016-06-02T10:18:59.939Z,990.03
2016-06-02T10:19:59.943Z,990.07
2016-06-02T10:20:59.976Z,990.07
2016-06-02T10:21:59.979Z,990.09
2016-06-02T10:22:59.998Z,990.12
2016-06-02T10:24:00.251Z,990.05
2016-06-02T10:26:00.693Z,989.97
2016-06-02T10:27:00.055Z,989.98
2016-06-02T10:28:00.074Z,989.95
2016-06-02T10:29:00.107Z,989.97
2016-06-02T10:30:00.314Z,990.01
2016-06-02T10:31:00.113Z,990
2016-06-02T10:32:00.131Z,990.01
2016-06-02T10:33:00.133Z,990.03
2016-06-02T10:34:00.152Z,989.97
2016-06-02T10:35:00.170Z,989.98
2016-06-02T10:36:00.173Z,990.06
2016-06-02T10:37:00.425Z,990.05
2016-06-02T10:38:00.428Z,990.11
2016-06-02T10:39:00.244Z,990.06
2016-06-02T10:40:00.246Z,990.07
2016-06-02T10:41:00.249Z,990.05
2016-06-02T10:43:00.285Z,990
2016-06-02T10:44:00.491Z,990.05
2016-06-02T10:45:00.322Z,990.04
2016-06-02T10:46:00.324Z,990.05
2016-06-02T10:47:00.343Z,990.07
2016-06-02T10:48:00.565Z,990.07
2016-06-02T10:49:00.583Z,990.04
2016-06-02T10:50:00.382Z,990
2016-06-02T10:51:00.401Z,990.01
2016-06-02T10:53:00.438Z,989.97
2016-06-02T10:54:00.471Z,989.94
2016-06-02T10:55:00.474Z,989.97
2016-06-02T10:56:00.476Z,989.96
2016-06-02T10:57:00.495Z,989.96
2016-06-02T10:58:00.497Z,989.91
2016-06-02T10:59:00.517Z,989.95
2016-06-02T11:00:00.534Z,989.95
2016-06-02T11:01:00.553Z,989.98
2016-06-02T11:02:00.586Z,989.97
2016-06-02T11:03:00.605Z,990.04
2016-06-02T11:04:00.827Z,990.05
2016-06-02T11:05:00.830Z,990.1
2016-06-02T11:06:00.644Z,990.02
2016-06-02T11:07:00.850Z,989.89
2016-06-02T11:08:00.666Z,989.83
2016-06-02T11:09:00.700Z,989.81
2016-06-02T11:10:00.889Z,989.79
2016-06-02T11:11:00.704Z,989.77
2016-06-02T11:12:00.723Z,989.73
2016-06-02T11:13:00.757Z,989.78
2016-06-02T11:14:00.759Z,989.81
2016-06-02T11:15:00.778Z,989.81
2016-06-02T11:16:00.780Z,989.8
2016-06-02T11:17:01.033Z,989.78
2016-06-02T11:18:00.818Z,989.85
2016-06-02T11:19:00.836Z,989.81
2016-06-02T11:20:00.838Z,989.75
2016-06-02T11:21:01.090Z,989.84
2016-06-02T11:22:01.093Z,989.8
2016-06-02T11:23:00.893Z,989.78
2016-06-02T11:24:00.896Z,989.8
2016-06-02T11:25:00.914Z,989.83
2016-06-02T11:26:00.948Z,989.87
2016-06-02T11:27:00.966Z,989.83
2016-06-02T11:30:01.006Z,989.89
2016-06-02T11:31:01.025Z,989.84
2016-06-02T11:32:01.027Z,989.85
2016-06-02T11:33:01.450Z,989.9
2016-06-02T11:34:01.704Z,989.87
2016-06-02T11:35:01.097Z,989.89
2016-06-02T11:36:01.100Z,989.89
2016-06-02T11:37:01.103Z,989.93
2016-06-02T11:38:01.121Z,989.89
2016-06-02T11:39:01.374Z,989.91
2016-06-02T11:42:01.194Z,989.75
2016-06-02T11:43:01.213Z,989.78
2016-06-02T11:44:01.638Z,989.8
2016-06-02T11:45:01.249Z,989.85
2016-06-02T11:46:01.252Z,989.87
2016-06-02T11:47:01.286Z,989.85
2016-06-02T11:48:01.304Z,989.81
2016-06-02T11:49:01.307Z,989.86
2016-06-02T11:50:01.543Z,989.89
2016-06-02T11:51:01.343Z,989.87
2016-06-02T11:53:01.380Z,989.94
2016-06-02T11:54:01.399Z,990
2016-06-02T11:55:01.401Z,990.07
2016-06-02T11:56:01.420Z,990.1
2016-06-02T11:57:01.438Z,990.17
2016-06-02T11:58:01.440Z,990.18
2016-06-02T11:59:01.475Z,990.2
2016-06-02T12:00:01.523Z,990.2
2016-06-02T12:01:01.512Z,990.2
2016-06-02T12:02:01.717Z,990.21
2016-06-02T12:03:01.532Z,990.23
2016-06-02T12:05:01.569Z,990.2
2016-06-02T12:06:01.571Z,990.19
2016-06-02T12:07:01.589Z,990.13
2016-06-02T12:08:01.842Z,990.05
2016-06-02T12:09:01.611Z,990.03
2016-06-02T12:10:01.676Z,989.95
2016-06-02T12:11:01.663Z,989.94
2016-06-02T12:12:01.680Z,989.9
2016-06-02T12:13:01.684Z,989.84
2016-06-02T12:14:01.702Z,989.82
2016-06-02T12:15:01.705Z,989.84
2016-06-02T12:17:01.757Z,989.78
2016-06-02T12:18:01.760Z,989.79
2016-06-02T12:19:01.778Z,989.77
2016-06-02T12:20:01.796Z,989.82
2016-06-02T12:21:01.815Z,989.82
2016-06-02T12:22:01.865Z,989.81
2016-06-02T12:23:01.851Z,989.85
2016-06-02T12:24:01.854Z,989.86
2016-06-02T12:25:01.904Z,989.82
2016-06-02T12:26:01.891Z,989.79
2016-06-02T12:27:02.315Z,989.82
2016-06-02T12:28:01.912Z,989.8
2016-06-02T12:29:01.931Z,989.75
2016-06-02T12:30:01.948Z,989.71
2016-06-02T12:31:01.967Z,989.68
2016-06-02T12:32:01.984Z,989.65
2016-06-02T12:34:02.022Z,989.66
2016-06-02T12:35:02.049Z,989.65
2016-06-02T12:36:02.096Z,989.68
2016-06-02T12:37:02.142Z,989.72
2016-06-02T12:38:02.172Z,989.73
2016-06-02T12:40:02.258Z,989.88
2016-06-02T12:41:02.301Z,990
2016-06-02T12:42:02.314Z,990.09
2016-06-02T12:43:02.327Z,990.13
2016-06-02T12:44:02.356Z,990.11
2016-06-02T12:45:02.381Z,990.09
2016-06-02T12:46:02.403Z,989.96
2016-06-02T12:48:02.634Z,989.94
2016-06-02T12:49:02.452Z,989.95
2016-06-02T12:51:02.509Z,989.95
2016-06-02T12:52:02.918Z,989.91
2016-06-02T12:54:02.754Z,989.91
2016-06-02T12:55:02.571Z,989.83
2016-06-02T12:56:02.808Z,989.67
2016-06-02T12:57:02.593Z,989.61
2016-06-02T12:58:02.627Z,989.65
2016-06-02T13:00:02.648Z,989.68
2016-06-02T13:01:02.684Z,989.59
2016-06-02T13:02:02.687Z,989.6
2016-06-02T13:03:02.907Z,989.63
2016-06-02T13:04:02.707Z,989.66
2016-06-02T13:05:02.742Z,989.61
2016-06-02T13:06:03.151Z,989.64
2016-06-02T13:07:02.762Z,989.65
2016-06-02T13:08:02.812Z,989.72
2016-06-02T13:09:02.987Z,989.75
2016-06-02T13:10:04.084Z,989.75
2016-06-02T13:11:03.040Z,989.76
2016-06-02T13:12:03.073Z,989.74
2016-06-02T13:13:03.076Z,989.79
2016-06-02T13:14:02.876Z,989.85
2016-06-02T13:15:03.129Z,989.93
2016-06-02T13:16:03.115Z,989.93
2016-06-02T13:17:03.165Z,990.01
2016-06-02T13:18:02.934Z,989.98
2016-06-02T13:19:02.951Z,990.02